Lea County Regional Airport
KHOB : rendu visible

Aérodrome :











RETROUVEZ-NOUS SUR...

 
LOGIN :

S'inscrire | Disclaimer

   EN    FR    IT 

 









Légende :    VFR   VFR Marginal   IFR   IFR Intensif   IFR Très Intensif
Visi : 
Plafond : 
>= 8 km
>= 3000ft
5 à 8 km
1000 à 3000 ft
1500m à 5 km
500 à 1000 ft
800 à 1500m
200 à 500 ft
< 800m
< 200 ft
Symboles :   Orages  Brouillard  Fortes neiges  Fortes précipitations  Vent > 20 kt






- Altitude de l'aérodrome : 3661 ft


KHOB - Lea County Regional

DERNIER METAR :
  • 150735Z AUTO 22004KT 10SM CLR 01/M02 A3043 RMK AO2

METARs EXPIRÉS :
  • 150715Z AUTO 24005KT 10SM CLR 00/M02 A3043 RMK AO2
  • 150655Z AUTO 23006KT 10SM CLR 01/M02 A3044 RMK AO2
  • 150635Z AUTO 23005KT 10SM CLR 01/M02 A3044 RMK AO2
  • 150615Z AUTO 24005KT 10SM CLR 02/M02 A3044 RMK AO2
  • 150555Z AUTO 21004KT 10SM CLR 02/M02 A3044 RMK AO2
  • 150535Z AUTO 20003KT 10SM CLR 03/M02 A3044 RMK AO2
  • 150515Z AUTO 20004KT 10SM CLR 03/M02 A3044 RMK AO2

TAF KHOB
Valide du 15 à 06h jusqu'au 16 à 06h UTC


150526Z 1506/1606 19007KT P6SM FEW250



MET'MAP, la Météo Aéronautique d'un coup d'oeil ! - Copyright ORBIFLY Décembre 2007 - Disclaimer

ORBIFLY MET'MAP TEAM :

Programmation & Développement : Alexandra Zaïnal
Conception & Développement : Baudouin d'Aumeries
Co-Programmation & Développement : Marc-Olivier Méhu
Soutien technique & logistique : Manuel Goepfert

Contact : metmap@orbifly.com




SOURCES & CREDITS :

   NOAA       Earth
Advisory